sensor_id;sensor_type;location;lat;lon;timestamp;pressure;altitude;pressure_sealevel;temperature;humidity
11448;BME280;43755;49.736;8.734;2023-05-21T00:00:36;97633.00;;;14.00;100.00
11448;BME280;43755;49.736;8.734;2023-05-21T00:02:38;97629.88;;;13.93;100.00
11448;BME280;43755;49.736;8.734;2023-05-21T00:04:40;97628.38;;;13.89;100.00
11448;BME280;43755;49.736;8.734;2023-05-21T00:06:41;97628.06;;;13.94;100.00
11448;BME280;43755;49.736;8.734;2023-05-21T00:08:43;97623.41;;;13.98;100.00
11448;BME280;43755;49.736;8.734;2023-05-21T00:10:45;97623.91;;;13.90;100.00
11448;BME280;43755;49.736;8.734;2023-05-21T00:12:47;97622.28;;;13.87;100.00
11448;BME280;43755;49.736;8.734;2023-05-21T00:14:48;97621.78;;;13.81;100.00
11448;BME280;43755;49.736;8.734;2023-05-21T00:16:50;97622.06;;;13.90;100.00
11448;BME280;43755;49.736;8.734;2023-05-21T00:18:51;97615.34;;;13.85;100.00
11448;BME280;43755;49.736;8.734;2023-05-21T00:20:53;97613.44;;;13.87;100.00
11448;BME280;43755;49.736;8.734;2023-05-21T00:22:54;97613.53;;;13.85;100.00
11448;BME280;43755;49.736;8.734;2023-05-21T00:24:56;97611.06;;;13.82;100.00
11448;BME280;43755;49.736;8.734;2023-05-21T00:26:58;97605.94;;;13.79;100.00
11448;BME280;43755;49.736;8.734;2023-05-21T00:29:00;97608.72;;;13.78;100.00
11448;BME280;43755;49.736;8.734;2023-05-21T00:31:01;97601.47;;;13.80;100.00
11448;BME280;43755;49.736;8.734;2023-05-21T00:33:03;97601.28;;;13.83;100.00
11448;BME280;43755;49.736;8.734;2023-05-21T00:35:05;97604.53;;;13.88;100.00
11448;BME280;43755;49.736;8.734;2023-05-21T00:37:07;97605.44;;;13.73;100.00
11448;BME280;43755;49.736;8.734;2023-05-21T00:39:09;97605.06;;;13.79;100.00
11448;BME280;43755;49.736;8.734;2023-05-21T00:41:11;97597.97;;;13.79;100.00
11448;BME280;43755;49.736;8.734;2023-05-21T00:43:14;97601.75;;;13.75;100.00
11448;BME280;43755;49.736;8.734;2023-05-21T00:45:15;97601.13;;;13.72;100.00
11448;BME280;43755;49.736;8.734;2023-05-21T00:47:17;97592.00;;;13.76;100.00
11448;BME280;43755;49.736;8.734;2023-05-21T00:49:21;97599.41;;;13.71;100.00
11448;BME280;43755;49.736;8.734;2023-05-21T00:51:24;97590.09;;;13.64;100.00
11448;BME280;43755;49.736;8.734;2023-05-21T00:53:29;97596.34;;;13.63;100.00
11448;BME280;43755;49.736;8.734;2023-05-21T00:55:30;97591.97;;;13.62;100.00
11448;BME280;43755;49.736;8.734;2023-05-21T00:57:33;97581.53;;;13.59;100.00
11448;BME280;43755;49.736;8.734;2023-05-21T00:59:37;97585.41;;;13.67;100.00
11448;BME280;43755;49.736;8.734;2023-05-21T01:01:39;97585.25;;;13.70;100.00
11448;BME280;43755;49.736;8.734;2023-05-21T01:03:40;97573.94;;;13.67;100.00
11448;BME280;43755;49.736;8.734;2023-05-21T01:05:42;97582.97;;;13.64;100.00
11448;BME280;43755;49.736;8.734;2023-05-21T01:07:44;97570.13;;;13.57;100.00
11448;BME280;43755;49.736;8.734;2023-05-21T01:09:46;97570.13;;;13.57;100.00
11448;BME280;43755;49.736;8.734;2023-05-21T01:11:49;97569.59;;;13.66;100.00
11448;BME280;43755;49.736;8.734;2023-05-21T01:13:51;97568.91;;;13.62;100.00
11448;BME280;43755;49.736;8.734;2023-05-21T01:15:54;97571.47;;;13.64;100.00
11448;BME280;43755;49.736;8.734;2023-05-21T01:17:57;97571.78;;;13.59;100.00
11448;BME280;43755;49.736;8.734;2023-05-21T01:19:59;97562.16;;;13.57;100.00
11448;BME280;43755;49.736;8.734;2023-05-21T01:22:03;97565.59;;;13.59;100.00
11448;BME280;43755;49.736;8.734;2023-05-21T01:24:06;97564.16;;;13.53;100.00
11448;BME280;43755;49.736;8.734;2023-05-21T01:26:08;97561.31;;;13.56;100.00
11448;BME280;43755;49.736;8.734;2023-05-21T01:28:12;97564.66;;;13.60;100.00
11448;BME280;43755;49.736;8.734;2023-05-21T01:30:17;97561.78;;;13.63;100.00
11448;BME280;43755;49.736;8.734;2023-05-21T01:32:24;97552.22;;;13.60;100.00
11448;BME280;43755;49.736;8.734;2023-05-21T01:34:30;97553.25;;;13.58;100.00
11448;BME280;43755;49.736;8.734;2023-05-21T01:36:36;97551.91;;;13.50;100.00
11448;BME280;43755;49.736;8.734;2023-05-21T01:38:42;97552.97;;;13.48;100.00
11448;BME280;43755;49.736;8.734;2023-05-21T01:40:49;97548.78;;;13.58;100.00
11448;BME280;43755;49.736;8.734;2023-05-21T01:42:53;97542.72;;;13.56;100.00
11448;BME280;43755;49.736;8.734;2023-05-21T01:44:56;97540.72;;;13.60;100.00
11448;BME280;43755;49.736;8.734;2023-05-21T01:47:00;97541.84;;;13.56;100.00
11448;BME280;43755;49.736;8.734;2023-05-21T01:49:03;97539.19;;;13.56;100.00
11448;BME280;43755;49.736;8.734;2023-05-21T01:51:05;97544.63;;;13.54;100.00
11448;BME280;43755;49.736;8.734;2023-05-21T01:53:07;97539.09;;;13.57;100.00
11448;BME280;43755;49.736;8.734;2023-05-21T01:55:08;97537.41;;;13.56;100.00
11448;BME280;43755;49.736;8.734;2023-05-21T01:57:11;97535.22;;;13.48;100.00
11448;BME280;43755;49.736;8.734;2023-05-21T01:59:13;97536.25;;;13.46;100.00
11448;BME280;43755;49.736;8.734;2023-05-21T02:01:14;97527.91;;;13.52;100.00
11448;BME280;43755;49.736;8.734;2023-05-21T02:03:15;97530.66;;;13.50;100.00
11448;BME280;43755;49.736;8.734;2023-05-21T02:05:17;97535.78;;;13.53;100.00
11448;BME280;43755;49.736;8.734;2023-05-21T02:07:19;97530.47;;;13.53;100.00
11448;BME280;43755;49.736;8.734;2023-05-21T02:09:20;97533.41;;;13.49;100.00
11448;BME280;43755;49.736;8.734;2023-05-21T02:11:21;97531.81;;;13.46;100.00
11448;BME280;43755;49.736;8.734;2023-05-21T02:13:24;97536.19;;;13.47;100.00
11448;BME280;43755;49.736;8.734;2023-05-21T02:15:26;97539.41;;;13.52;100.00
11448;BME280;43755;49.736;8.734;2023-05-21T02:17:27;97528.59;;;13.41;100.00
11448;BME280;43755;49.736;8.734;2023-05-21T02:19:33;97542.59;;;13.43;100.00
11448;BME280;43755;49.736;8.734;2023-05-21T02:21:34;97536.25;;;13.46;100.00
11448;BME280;43755;49.736;8.734;2023-05-21T02:23:36;97531.16;;;13.43;100.00
11448;BME280;43755;49.736;8.734;2023-05-21T02:25:38;97531.72;;;13.48;100.00
11448;BME280;43755;49.736;8.734;2023-05-21T02:27:40;97531.81;;;13.46;100.00
11448;BME280;43755;49.736;8.734;2023-05-21T02:29:42;97527.81;;;13.53;100.00
11448;BME280;43755;49.736;8.734;2023-05-21T02:31:44;97536.91;;;13.49;100.00
11448;BME280;43755;49.736;8.734;2023-05-21T02:33:45;97520.22;;;13.47;100.00
11448;BME280;43755;49.736;8.734;2023-05-21T02:35:47;97528.69;;;13.54;100.00
11448;BME280;43755;49.736;8.734;2023-05-21T02:37:48;97529.91;;;13.48;100.00
11448;BME280;43755;49.736;8.734;2023-05-21T02:39:50;97524.59;;;13.48;100.00
11448;BME280;43755;49.736;8.734;2023-05-21T02:41:51;97532.94;;;13.57;100.00
11448;BME280;43755;49.736;8.734;2023-05-21T02:43:52;97533.13;;;13.53;100.00
11448;BME280;43755;49.736;8.734;2023-05-21T02:45:55;97527.63;;;13.57;100.00
11448;BME280;43755;49.736;8.734;2023-05-21T02:47:56;97536.34;;;13.59;100.00
11448;BME280;43755;49.736;8.734;2023-05-21T02:49:59;97523.63;;;13.64;100.00
11448;BME280;43755;49.736;8.734;2023-05-21T02:52:00;97532.94;;;13.57;100.00
11448;BME280;43755;49.736;8.734;2023-05-21T02:54:02;97535.31;;;13.47;100.00
11448;BME280;43755;49.736;8.734;2023-05-21T02:56:04;97527.53;;;13.44;100.00
11448;BME280;43755;49.736;8.734;2023-05-21T02:58:06;97533.69;;;13.44;100.00
11448;BME280;43755;49.736;8.734;2023-05-21T03:00:08;97528.50;;;13.43;100.00
11448;BME280;43755;49.736;8.734;2023-05-21T03:02:12;97525.25;;;13.38;100.00
11448;BME280;43755;49.736;8.734;2023-05-21T03:04:13;97524.78;;;13.45;100.00
11448;BME280;43755;49.736;8.734;2023-05-21T03:06:16;97525.34;;;13.36;100.00
11448;BME280;43755;49.736;8.734;2023-05-21T03:08:17;97521.06;;;13.34;100.00
11448;BME280;43755;49.736;8.734;2023-05-21T03:10:19;97521.16;;;13.32;100.00
11448;BME280;43755;49.736;8.734;2023-05-21T03:12:20;97526.47;;;13.32;100.00
11448;BME280;43755;49.736;8.734;2023-05-21T03:14:21;97519.00;;;13.25;100.00
11448;BME280;43755;49.736;8.734;2023-05-21T03:16:23;97515.97;;;13.31;100.00
11448;BME280;43755;49.736;8.734;2023-05-21T03:18:26;97511.22;;;13.36;100.00
11448;BME280;43755;49.736;8.734;2023-05-21T03:20:28;97509.41;;;13.22;100.00
11448;BME280;43755;49.736;8.734;2023-05-21T03:22:29;97511.28;;;13.20;100.00
11448;BME280;43755;49.736;8.734;2023-05-21T03:24:31;97509.84;;;13.15;100.00
11448;BME280;43755;49.736;8.734;2023-05-21T03:26:33;97509.84;;;13.15;100.00
11448;BME280;43755;49.736;8.734;2023-05-21T03:28:34;97511.56;;;13.16;100.00
11448;BME280;43755;49.736;8.734;2023-05-21T03:30:35;97509.44;;;13.06;100.00
11448;BME280;43755;49.736;8.734;2023-05-21T03:32:37;97510.91;;;13.12;100.00
11448;BME280;43755;49.736;8.734;2023-05-21T03:34:41;97509.25;;;13.09;100.00
11448;BME280;43755;49.736;8.734;2023-05-21T03:36:43;97508.88;;;13.01;100.00
11448;BME280;43755;49.736;8.734;2023-05-21T03:38:44;97501.06;;;12.98;100.00
11448;BME280;43755;49.736;8.734;2023-05-21T03:40:46;97503.56;;;13.01;100.00
11448;BME280;43755;49.736;8.734;2023-05-21T03:42:47;97497.56;;;12.98;100.00
11448;BME280;43755;49.736;8.734;2023-05-21T03:44:48;97504.31;;;13.03;100.00
11448;BME280;43755;49.736;8.734;2023-05-21T03:46:50;97504.22;;;13.05;100.00
11448;BME280;43755;49.736;8.734;2023-05-21T03:48:51;97504.03;;;13.08;100.00
11448;BME280;43755;49.736;8.734;2023-05-21T03:50:54;97500.22;;;12.98;100.00
11448;BME280;43755;49.736;8.734;2023-05-21T03:52:56;97501.28;;;12.95;100.00
11448;BME280;43755;49.736;8.734;2023-05-21T03:54:57;97505.03;;;12.91;100.00
11448;BME280;43755;49.736;8.734;2023-05-21T03:56:59;97504.38;;;12.88;100.00
11448;BME280;43755;49.736;8.734;2023-05-21T03:59:00;97510.34;;;12.91;100.00
11448;BME280;43755;49.736;8.734;2023-05-21T04:01:02;97507.81;;;12.90;100.00
11448;BME280;43755;49.736;8.734;2023-05-21T04:03:03;97511.78;;;12.83;100.00
11448;BME280;43755;49.736;8.734;2023-05-21T04:05:06;97500.47;;;12.79;100.00
11448;BME280;43755;49.736;8.734;2023-05-21T04:07:09;97509.28;;;12.80;100.00
11448;BME280;43755;49.736;8.734;2023-05-21T04:09:13;97511.78;;;12.83;100.00
11448;BME280;43755;49.736;8.734;2023-05-21T04:11:15;97514.59;;;12.80;100.00
11448;BME280;43755;49.736;8.734;2023-05-21T04:13:17;97516.38;;;12.79;100.00
11448;BME280;43755;49.736;8.734;2023-05-21T04:15:18;97523.59;;;12.77;100.00
11448;BME280;43755;49.736;8.734;2023-05-21T04:17:20;97523.31;;;12.82;100.00
11448;BME280;43755;49.736;8.734;2023-05-21T04:19:21;97524.19;;;12.82;100.00
11448;BME280;43755;49.736;8.734;2023-05-21T04:21:22;97511.78;;;12.83;100.00
11448;BME280;43755;49.736;8.734;2023-05-21T04:23:25;97512.44;;;12.86;100.00
11448;BME280;43755;49.736;8.734;2023-05-21T04:25:26;97520.22;;;12.89;100.00
11448;BME280;43755;49.736;8.734;2023-05-21T04:27:28;97516.81;;;12.87;100.00
11448;BME280;43755;49.736;8.734;2023-05-21T04:29:29;97515.66;;;12.91;100.00
11448;BME280;43755;49.736;8.734;2023-05-21T04:31:31;97513.84;;;12.92;100.00
11448;BME280;43755;49.736;8.734;2023-05-21T04:33:32;97508.56;;;12.92;100.00
11448;BME280;43755;49.736;8.734;2023-05-21T04:35:35;97513.00;;;12.91;100.00
11448;BME280;43755;49.736;8.734;2023-05-21T04:37:36;97518.69;;;12.85;100.00
11448;BME280;43755;49.736;8.734;2023-05-21T04:39:42;97519.63;;;12.84;100.00
11448;BME280;43755;49.736;8.734;2023-05-21T04:41:43;97522.28;;;12.84;100.00
11448;BME280;43755;49.736;8.734;2023-05-21T04:43:45;97529.28;;;12.85;100.00
11448;BME280;43755;49.736;8.734;2023-05-21T04:45:46;97524.19;;;12.82;100.00
11448;BME280;43755;49.736;8.734;2023-05-21T04:47:48;97522.88;;;12.89;100.00
11448;BME280;43755;49.736;8.734;2023-05-21T04:49:49;97523.81;;;12.88;100.00
11448;BME280;43755;49.736;8.734;2023-05-21T04:51:50;97521.81;;;12.92;100.00
11448;BME280;43755;49.736;8.734;2023-05-21T04:53:52;97520.31;;;12.88;100.00
11448;BME280;43755;49.736;8.734;2023-05-21T04:55:55;97524.84;;;12.86;100.00
11448;BME280;43755;49.736;8.734;2023-05-21T04:57:58;97521.16;;;12.88;100.00
11448;BME280;43755;49.736;8.734;2023-05-21T04:59:59;97525.78;;;12.85;100.00
11448;BME280;43755;49.736;8.734;2023-05-21T05:02:03;97524.84;;;12.86;100.00
11448;BME280;43755;49.736;8.734;2023-05-21T05:04:04;97512.84;;;12.94;100.00
11448;BME280;43755;49.736;8.734;2023-05-21T05:06:06;97525.91;;;12.97;100.00
11448;BME280;43755;49.736;8.734;2023-05-21T05:08:08;97520.59;;;12.97;100.00
11448;BME280;43755;49.736;8.734;2023-05-21T05:10:09;97523.75;;;13.04;100.00
11448;BME280;43755;49.736;8.734;2023-05-21T05:12:12;97523.59;;;13.07;100.00
11448;BME280;43755;49.736;8.734;2023-05-21T05:14:15;97516.88;;;13.16;100.00
11448;BME280;43755;49.736;8.734;2023-05-21T05:16:16;97514.78;;;13.21;100.00
11448;BME280;43755;49.736;8.734;2023-05-21T05:18:23;97514.63;;;13.24;100.00
11448;BME280;43755;49.736;8.734;2023-05-21T05:20:25;97522.09;;;13.31;100.00
11448;BME280;43755;49.736;8.734;2023-05-21T05:22:26;97515.59;;;13.37;100.00
11448;BME280;43755;49.736;8.734;2023-05-21T05:24:28;97520.91;;;13.37;100.00
11448;BME280;43755;49.736;8.734;2023-05-21T05:26:29;97521.44;;;13.56;100.00
11448;BME280;43755;49.736;8.734;2023-05-21T05:28:32;97520.69;;;13.68;100.00
11448;BME280;43755;49.736;8.734;2023-05-21T05:30:33;97511.13;;;13.66;100.00
11448;BME280;43755;49.736;8.734;2023-05-21T05:32:35;97519.56;;;13.72;100.00
11448;BME280;43755;49.736;8.734;2023-05-21T05:34:37;97512.69;;;13.82;100.00
11448;BME280;43755;49.736;8.734;2023-05-21T05:36:38;97510.91;;;13.83;100.00
11448;BME280;43755;49.736;8.734;2023-05-21T05:38:40;97518.44;;;14.03;100.00
11448;BME280;43755;49.736;8.734;2023-05-21T05:40:41;97512.16;;;14.18;100.00
11448;BME280;43755;49.736;8.734;2023-05-21T05:42:43;97508.56;;;14.32;100.00
11448;BME280;43755;49.736;8.734;2023-05-21T05:44:45;97511.53;;;14.42;100.00
11448;BME280;43755;49.736;8.734;2023-05-21T05:46:47;97507.94;;;14.43;100.00
11448;BME280;43755;49.736;8.734;2023-05-21T05:48:48;97514.75;;;14.47;100.00
11448;BME280;43755;49.736;8.734;2023-05-21T05:50:49;97512.72;;;14.50;100.00
11448;BME280;43755;49.736;8.734;2023-05-21T05:52:53;97514.88;;;14.58;100.00
11448;BME280;43755;49.736;8.734;2023-05-21T05:54:55;97517.31;;;14.48;100.00
11448;BME280;43755;49.736;8.734;2023-05-21T05:56:56;97512.28;;;14.44;100.00
11448;BME280;43755;49.736;8.734;2023-05-21T05:58:58;97517.19;;;14.50;100.00
11448;BME280;43755;49.736;8.734;2023-05-21T06:01:01;97506.84;;;14.45;100.00
11448;BME280;43755;49.736;8.734;2023-05-21T06:03:02;97510.06;;;14.50;100.00
11448;BME280;43755;49.736;8.734;2023-05-21T06:05:04;97502.88;;;14.65;100.00
11448;BME280;43755;49.736;8.734;2023-05-21T06:07:06;97512.16;;;14.72;100.00
11448;BME280;43755;49.736;8.734;2023-05-21T06:09:08;97506.28;;;14.67;100.00
11448;BME280;43755;49.736;8.734;2023-05-21T06:11:09;97507.69;;;14.85;100.00
11448;BME280;43755;49.736;8.734;2023-05-21T06:13:11;97504.75;;;14.90;100.00
11448;BME280;43755;49.736;8.734;2023-05-21T06:15:12;97509.25;;;15.02;100.00
11448;BME280;43755;49.736;8.734;2023-05-21T06:17:15;97512.13;;;15.11;100.00
11448;BME280;43755;49.736;8.734;2023-05-21T06:19:16;97512.13;;;15.11;100.00
11448;BME280;43755;49.736;8.734;2023-05-21T06:21:18;97515.09;;;15.07;100.00
11448;BME280;43755;49.736;8.734;2023-05-21T06:23:19;97510.22;;;15.13;100.00
11448;BME280;43755;49.736;8.734;2023-05-21T06:25:21;97517.34;;;15.26;100.00
11448;BME280;43755;49.736;8.734;2023-05-21T06:27:22;97511.81;;;15.29;100.00
11448;BME280;43755;49.736;8.734;2023-05-21T06:29:23;97513.19;;;15.34;100.00
11448;BME280;43755;49.736;8.734;2023-05-21T06:31:25;97515.63;;;15.50;100.00
11448;BME280;43755;49.736;8.734;2023-05-21T06:33:28;97511.91;;;15.27;100.00
11448;BME280;43755;49.736;8.734;2023-05-21T06:35:29;97510.75;;;15.31;100.00
11448;BME280;43755;49.736;8.734;2023-05-21T06:37:31;97518.31;;;15.37;100.00
11448;BME280;43755;49.736;8.734;2023-05-21T06:39:33;97516.50;;;15.25;100.00
11448;BME280;43755;49.736;8.734;2023-05-21T06:41:34;97517.03;;;15.30;100.00
11448;BME280;43755;49.736;8.734;2023-05-21T06:43:35;97517.47;;;15.37;100.00
11448;BME280;43755;49.736;8.734;2023-05-21T06:45:37;97522.47;;;15.29;100.00
11448;BME280;43755;49.736;8.734;2023-05-21T06:47:38;97515.66;;;15.37;100.00
11448;BME280;43755;49.736;8.734;2023-05-21T06:49:41;97528.13;;;15.37;100.00
11448;BME280;43755;49.736;8.734;2023-05-21T06:51:42;97528.44;;;15.45;100.00
11448;BME280;43755;49.736;8.734;2023-05-21T06:53:44;97529.75;;;15.52;100.00
11448;BME280;43755;49.736;8.734;2023-05-21T06:55:45;97528.84;;;15.51;100.00
11448;BME280;43755;49.736;8.734;2023-05-21T06:57:48;97533.69;;;15.59;100.00
11448;BME280;43755;49.736;8.734;2023-05-21T06:59:49;97528.78;;;15.66;100.00
11448;BME280;43755;49.736;8.734;2023-05-21T07:01:50;97532.59;;;15.74;100.00
11448;BME280;43755;49.736;8.734;2023-05-21T07:03:52;97536.88;;;15.77;100.00
11448;BME280;43755;49.736;8.734;2023-05-21T07:05:55;97535.78;;;15.79;100.00
11448;BME280;43755;49.736;8.734;2023-05-21T07:07:57;97540.69;;;15.85;100.00
11448;BME280;43755;49.736;8.734;2023-05-21T07:09:58;97540.25;;;15.91;100.00
11448;BME280;43755;49.736;8.734;2023-05-21T07:12:00;97533.50;;;16.11;100.00
11448;BME280;43755;49.736;8.734;2023-05-21T07:14:02;97533.22;;;16.27;100.00
11448;BME280;43755;49.736;8.734;2023-05-21T07:16:03;97533.47;;;16.24;100.00
11448;BME280;43755;49.736;8.734;2023-05-21T07:18:05;97536.94;;;16.37;100.00
11448;BME280;43755;49.736;8.734;2023-05-21T07:20:07;97529.50;;;16.53;100.00
11448;BME280;43755;49.736;8.734;2023-05-21T07:22:10;97532.63;;;16.47;100.00
11448;BME280;43755;49.736;8.734;2023-05-21T07:24:12;97538.19;;;16.44;100.00
11448;BME280;43755;49.736;8.734;2023-05-21T07:26:14;97537.09;;;16.59;100.00
11448;BME280;43755;49.736;8.734;2023-05-21T07:28:15;97541.56;;;16.59;100.00
11448;BME280;43755;49.736;8.734;2023-05-21T07:30:17;97533.13;;;16.52;100.00
11448;BME280;43755;49.736;8.734;2023-05-21T07:32:19;97545.63;;;16.28;100.00
11448;BME280;43755;49.736;8.734;2023-05-21T07:34:21;97541.38;;;16.25;100.00
11448;BME280;43755;49.736;8.734;2023-05-21T07:36:22;97548.25;;;16.41;100.00
11448;BME280;43755;49.736;8.734;2023-05-21T07:38:26;97538.41;;;16.41;100.00
11448;BME280;43755;49.736;8.734;2023-05-21T07:40:27;97543.56;;;16.55;100.00
11448;BME280;43755;49.736;8.734;2023-05-21T07:42:29;97539.88;;;16.82;100.00
11448;BME280;43755;49.736;8.734;2023-05-21T07:44:31;97540.16;;;16.90;100.00
11448;BME280;43755;49.736;8.734;2023-05-21T07:46:32;97542.63;;;17.04;100.00
11448;BME280;43755;49.736;8.734;2023-05-21T07:48:34;97539.75;;;17.18;100.00
11448;BME280;43755;49.736;8.734;2023-05-21T07:50:35;97537.47;;;17.36;100.00
11448;BME280;43755;49.736;8.734;2023-05-21T07:52:36;97538.09;;;17.50;100.00
11448;BME280;43755;49.736;8.734;2023-05-21T07:54:39;97539.47;;;17.67;100.00
11448;BME280;43755;49.736;8.734;2023-05-21T07:56:41;97546.44;;;17.70;100.00
11448;BME280;43755;49.736;8.734;2023-05-21T07:58:42;97538.19;;;17.84;100.00
11448;BME280;43755;49.736;8.734;2023-05-21T08:00:45;97544.97;;;17.99;100.00
11448;BME280;43755;49.736;8.734;2023-05-21T08:02:47;97546.44;;;18.14;100.00
11448;BME280;43755;49.736;8.734;2023-05-21T08:04:48;97543.59;;;18.27;100.00
11448;BME280;43755;49.736;8.734;2023-05-21T08:06:51;97550.16;;;18.45;100.00
11448;BME280;43755;49.736;8.734;2023-05-21T08:08:53;97552.44;;;18.50;100.00
11448;BME280;43755;49.736;8.734;2023-05-21T08:10:56;97551.25;;;18.65;100.00
11448;BME280;43755;49.736;8.734;2023-05-21T08:12:57;97550.22;;;18.77;100.00
11448;BME280;43755;49.736;8.734;2023-05-21T08:14:59;97549.44;;;18.86;100.00
11448;BME280;43755;49.736;8.734;2023-05-21T08:17:00;97550.84;;;18.69;100.00
11448;BME280;43755;49.736;8.734;2023-05-21T08:19:02;97549.50;;;18.75;100.00
11448;BME280;43755;49.736;8.734;2023-05-21T08:21:03;97549.44;;;18.86;100.00
11448;BME280;43755;49.736;8.734;2023-05-21T08:23:05;97552.78;;;18.78;100.00
11448;BME280;43755;49.736;8.734;2023-05-21T08:25:07;97547.63;;;18.87;100.00
11448;BME280;43755;49.736;8.734;2023-05-21T08:27:10;97538.66;;;19.08;100.00
11448;BME280;43755;49.736;8.734;2023-05-21T08:29:11;97539.81;;;19.15;100.00
11448;BME280;43755;49.736;8.734;2023-05-21T08:31:13;97540.31;;;19.09;100.00
11448;BME280;43755;49.736;8.734;2023-05-21T08:33:14;97543.69;;;19.22;100.00
11448;BME280;43755;49.736;8.734;2023-05-21T08:35:16;97544.94;;;19.18;100.00
11448;BME280;43755;49.736;8.734;2023-05-21T08:37:17;97542.88;;;19.11;100.00
11448;BME280;43755;49.736;8.734;2023-05-21T08:39:19;97541.50;;;19.48;100.00
11448;BME280;43755;49.736;8.734;2023-05-21T08:41:20;97538.53;;;19.72;100.00
11448;BME280;43755;49.736;8.734;2023-05-21T08:43:26;97535.31;;;19.78;100.00
11448;BME280;43755;49.736;8.734;2023-05-21T08:45:33;97537.81;;;19.70;100.00
11448;BME280;43755;49.736;8.734;2023-05-21T08:47:36;97537.41;;;19.75;100.00
11448;BME280;43755;49.736;8.734;2023-05-21T08:49:38;97532.88;;;20.06;100.00
11448;BME280;43755;49.736;8.734;2023-05-21T08:51:43;97540.09;;;20.35;100.00
11448;BME280;43755;49.736;8.734;2023-05-21T08:53:44;97534.28;;;20.40;100.00
11448;BME280;43755;49.736;8.734;2023-05-21T08:55:46;97538.03;;;20.28;100.00
11448;BME280;43755;49.736;8.734;2023-05-21T08:57:49;97542.78;;;20.35;100.00
11448;BME280;43755;49.736;8.734;2023-05-21T08:59:53;97544.63;;;20.44;98.63
11448;BME280;43755;49.736;8.734;2023-05-21T09:01:54;97540.56;;;20.69;98.05
11448;BME280;43755;49.736;8.734;2023-05-21T09:03:56;97539.91;;;20.96;97.76
11448;BME280;43755;49.736;8.734;2023-05-21T09:05:58;97542.13;;;20.72;92.53
11448;BME280;43755;49.736;8.734;2023-05-21T09:08:04;97547.66;;;20.70;94.94
11448;BME280;43755;49.736;8.734;2023-05-21T09:10:11;97546.38;;;20.74;90.57
11448;BME280;43755;49.736;8.734;2023-05-21T09:12:13;97548.03;;;20.47;93.40
11448;BME280;43755;49.736;8.734;2023-05-21T09:14:15;97544.78;;;20.43;92.69
11448;BME280;43755;49.736;8.734;2023-05-21T09:16:18;97551.69;;;20.36;96.18
11448;BME280;43755;49.736;8.734;2023-05-21T09:18:20;97552.13;;;20.41;92.37
11448;BME280;43755;49.736;8.734;2023-05-21T09:20:23;97551.44;;;20.49;95.39
11448;BME280;43755;49.736;8.734;2023-05-21T09:22:26;97549.25;;;20.33;91.01
11448;BME280;43755;49.736;8.734;2023-05-21T09:24:29;97558.78;;;20.16;92.38
11448;BME280;43755;49.736;8.734;2023-05-21T09:26:31;97553.72;;;20.23;97.91
11448;BME280;43755;49.736;8.734;2023-05-21T09:28:34;97554.44;;;20.55;94.68
11448;BME280;43755;49.736;8.734;2023-05-21T09:30:36;97554.50;;;20.34;93.01
11448;BME280;43755;49.736;8.734;2023-05-21T09:32:39;97557.66;;;20.59;97.46
11448;BME280;43755;49.736;8.734;2023-05-21T09:34:41;97551.63;;;20.76;89.12
11448;BME280;43755;49.736;8.734;2023-05-21T09:36:42;97556.94;;;20.47;90.50
11448;BME280;43755;49.736;8.734;2023-05-21T09:38:43;97558.94;;;20.55;91.96
11448;BME280;43755;49.736;8.734;2023-05-21T09:40:45;97547.47;;;20.43;90.22
11448;BME280;43755;49.736;8.734;2023-05-21T09:42:48;97556.63;;;20.40;89.42
11448;BME280;43755;49.736;8.734;2023-05-21T09:44:49;97558.84;;;20.26;93.17
11448;BME280;43755;49.736;8.734;2023-05-21T09:46:55;97550.41;;;20.40;92.60
11448;BME280;43755;49.736;8.734;2023-05-21T09:48:59;97552.13;;;20.41;90.42
11448;BME280;43755;49.736;8.734;2023-05-21T09:51:11;97558.03;;;20.35;90.93
11448;BME280;43755;49.736;8.734;2023-05-21T09:53:12;97549.03;;;20.15;92.32
11448;BME280;43755;49.736;8.734;2023-05-21T09:55:15;97547.19;;;20.16;91.48
11448;BME280;43755;49.736;8.734;2023-05-21T09:57:22;97542.97;;;20.53;93.89
11448;BME280;43755;49.736;8.734;2023-05-21T09:59:24;97546.38;;;20.74;89.41
11448;BME280;43755;49.736;8.734;2023-05-21T10:01:35;97545.41;;;20.85;86.89
11448;BME280;43755;49.736;8.734;2023-05-21T10:03:38;97545.97;;;20.98;88.29
11448;BME280;43755;49.736;8.734;2023-05-21T10:05:41;97542.28;;;21.09;88.13
11448;BME280;43755;49.736;8.734;2023-05-21T10:07:46;97545.56;;;21.12;87.06
11448;BME280;43755;49.736;8.734;2023-05-21T10:09:49;97540.72;;;21.54;90.16
11448;BME280;43755;49.736;8.734;2023-05-21T10:11:52;97542.34;;;21.18;86.72
11448;BME280;43755;49.736;8.734;2023-05-21T10:13:56;97528.81;;;21.57;86.44
11448;BME280;43755;49.736;8.734;2023-05-21T10:16:00;97548.44;;;21.86;80.99
11448;BME280;43755;49.736;8.734;2023-05-21T10:18:02;97548.72;;;21.83;80.03
11448;BME280;43755;49.736;8.734;2023-05-21T10:20:05;97540.13;;;21.70;80.93
11448;BME280;43755;49.736;8.734;2023-05-21T10:22:09;97530.25;;;22.08;80.07
11448;BME280;43755;49.736;8.734;2023-05-21T10:24:12;97528.84;;;22.03;78.15
11448;BME280;43755;49.736;8.734;2023-05-21T10:26:14;97535.31;;;22.20;78.76
11448;BME280;43755;49.736;8.734;2023-05-21T10:28:16;97536.13;;;22.21;74.33
11448;BME280;43755;49.736;8.734;2023-05-21T10:30:20;97522.38;;;22.96;77.42
11448;BME280;43755;49.736;8.734;2023-05-21T10:32:22;97529.00;;;23.45;72.99
11448;BME280;43755;49.736;8.734;2023-05-21T10:34:24;97533.91;;;23.85;64.82
11448;BME280;43755;49.736;8.734;2023-05-21T10:36:29;97533.84;;;24.37;63.55
11448;BME280;43755;49.736;8.734;2023-05-21T10:40:35;97532.13;;;23.50;61.83
11448;BME280;43755;49.736;8.734;2023-05-21T10:45:13;97529.59;;;24.26;64.95